createdAt,value
2017-07-29T00:02:06.431Z,19.70
2017-07-29T00:04:39.996Z,19.60
2017-07-29T00:07:14.457Z,19.70
2017-07-29T00:09:48.073Z,19.60
2017-07-29T00:12:21.762Z,19.70
2017-07-29T00:14:56.290Z,19.70
2017-07-29T00:17:29.906Z,19.70
2017-07-29T00:20:04.436Z,19.80
2017-07-29T00:22:38.119Z,19.80
2017-07-29T00:25:12.010Z,19.80
2017-07-29T00:27:45.679Z,19.80
2017-07-29T00:30:19.371Z,19.80
2017-07-29T00:32:53.870Z,20.00
2017-07-29T00:35:27.722Z,19.90
2017-07-29T00:38:01.384Z,20.00
2017-07-29T00:40:35.902Z,20.00
2017-07-29T00:43:09.506Z,20.00
2017-07-29T00:45:44.006Z,19.90
2017-07-29T00:48:17.754Z,19.90
2017-07-29T00:50:51.461Z,19.90
2017-07-29T00:53:25.058Z,19.80
2017-07-29T00:55:59.531Z,19.70
2017-07-29T00:58:33.156Z,19.70
2017-07-29T01:01:06.873Z,19.80
2017-07-29T01:03:40.488Z,19.90
2017-07-29T01:06:14.214Z,19.90
2017-07-29T01:08:47.862Z,19.90
2017-07-29T01:11:21.485Z,19.90
2017-07-29T01:13:55.982Z,19.70
2017-07-29T01:16:29.792Z,19.60
2017-07-29T01:19:03.543Z,19.70
2017-07-29T01:21:37.177Z,19.60
2017-07-29T01:24:11.709Z,19.30
2017-07-29T01:26:45.301Z,19.30
2017-07-29T01:29:18.898Z,19.20
2017-07-29T01:31:52.524Z,19.20
2017-07-29T01:34:27.023Z,19.10
2017-07-29T01:37:00.652Z,19.10
2017-07-29T01:39:35.211Z,19.10
2017-07-29T01:42:08.910Z,19.00
2017-07-29T01:44:42.482Z,19.10
2017-07-29T01:47:16.803Z,19.00
2017-07-29T01:49:50.431Z,19.00
2017-07-29T01:52:23.995Z,19.10
2017-07-29T01:54:57.626Z,19.20
2017-07-29T01:57:31.330Z,19.20
2017-07-29T02:00:05.107Z,19.20
2017-07-29T02:02:38.724Z,19.20
2017-07-29T02:05:13.250Z,19.20
2017-07-29T02:07:47.052Z,19.20
2017-07-29T02:10:20.714Z,19.20
2017-07-29T02:12:55.075Z,19.10
2017-07-29T02:15:29.387Z,19.10
2017-07-29T02:18:02.998Z,19.10
2017-07-29T02:20:37.505Z,19.20
2017-07-29T02:23:11.172Z,19.10
2017-07-29T02:25:44.809Z,19.30
2017-07-29T02:28:18.392Z,19.10
2017-07-29T02:30:52.737Z,19.10
2017-07-29T02:33:26.324Z,19.10
2017-07-29T02:36:00.754Z,19.30
2017-07-29T02:38:34.345Z,19.20
2017-07-29T02:41:08.839Z,19.20
2017-07-29T02:43:42.466Z,19.20
2017-07-29T02:46:16.043Z,19.10
2017-07-29T02:48:49.576Z,19.10
2017-07-29T02:51:24.143Z,19.10
2017-07-29T02:53:57.722Z,19.10
2017-07-29T02:56:31.382Z,19.10
2017-07-29T02:59:04.976Z,19.20
2017-07-29T03:01:38.754Z,19.20
2017-07-29T03:04:12.502Z,19.20
2017-07-29T03:06:46.166Z,19.20
2017-07-29T03:09:19.707Z,19.20
2017-07-29T03:11:53.281Z,19.20
2017-07-29T03:14:27.033Z,19.20
2017-07-29T03:17:00.692Z,19.30
2017-07-29T03:19:35.105Z,19.40
2017-07-29T03:22:08.812Z,19.40
2017-07-29T03:24:42.435Z,19.50
2017-07-29T03:27:16.923Z,19.70
2017-07-29T03:29:50.558Z,19.60
2017-07-29T03:32:25.063Z,19.70
2017-07-29T03:34:58.653Z,19.60
2017-07-29T03:37:32.386Z,19.60
2017-07-29T03:40:06.097Z,19.50
2017-07-29T03:42:39.811Z,19.50
2017-07-29T03:45:13.456Z,19.40
2017-07-29T03:47:47.162Z,19.50
2017-07-29T03:50:20.898Z,19.50
2017-07-29T03:52:54.626Z,19.60
2017-07-29T03:55:28.387Z,19.70
2017-07-29T03:58:03.014Z,19.60
2017-07-29T04:00:36.604Z,19.60
2017-07-29T04:03:11.043Z,19.70
2017-07-29T04:05:44.652Z,19.60
2017-07-29T04:08:18.238Z,19.70
2017-07-29T04:10:51.819Z,19.50
2017-07-29T04:13:26.166Z,19.70
2017-07-29T04:15:59.748Z,19.60
2017-07-29T04:18:33.386Z,19.70
2017-07-29T04:21:06.951Z,19.70
2017-07-29T04:23:41.398Z,19.70
2017-07-29T04:26:16.022Z,19.80
2017-07-29T04:28:50.506Z,20.00
2017-07-29T04:31:24.365Z,19.90
2017-07-29T04:33:57.923Z,19.90
2017-07-29T04:36:32.278Z,20.00
2017-07-29T04:39:06.647Z,20.10
2017-07-29T04:41:40.429Z,20.00
2017-07-29T04:44:14.211Z,20.00
2017-07-29T04:46:48.798Z,20.00
2017-07-29T04:49:22.558Z,19.90
2017-07-29T04:51:56.234Z,19.80
2017-07-29T04:54:29.921Z,19.80
2017-07-29T04:57:03.477Z,19.70
2017-07-29T04:59:37.242Z,19.60
2017-07-29T05:02:10.914Z,19.70
2017-07-29T05:04:44.547Z,19.80
2017-07-29T05:07:19.049Z,19.80
2017-07-29T05:09:52.617Z,19.80
2017-07-29T05:12:27.163Z,19.90
2017-07-29T05:15:00.766Z,19.90
2017-07-29T05:17:35.286Z,20.00
2017-07-29T05:20:09.116Z,19.90
2017-07-29T05:22:42.797Z,20.10
2017-07-29T05:25:16.536Z,20.20
2017-07-29T05:27:50.141Z,20.20
2017-07-29T05:30:24.617Z,20.10
2017-07-29T05:32:58.483Z,20.00
2017-07-29T05:35:32.178Z,20.10
2017-07-29T05:38:05.743Z,20.10
2017-07-29T05:40:39.334Z,20.10
2017-07-29T05:43:12.967Z,20.00
2017-07-29T05:45:46.542Z,20.10
2017-07-29T05:48:20.102Z,20.20
2017-07-29T05:50:53.912Z,20.40
2017-07-29T05:53:27.742Z,20.70
2017-07-29T05:56:02.173Z,21.00
2017-07-29T05:58:35.790Z,21.00
2017-07-29T06:01:09.563Z,20.90
2017-07-29T06:03:43.148Z,20.80
2017-07-29T06:06:17.701Z,21.00
2017-07-29T06:08:52.214Z,20.90
2017-07-29T06:11:25.871Z,20.90
2017-07-29T06:13:59.565Z,20.80
2017-07-29T06:16:33.243Z,20.80
2017-07-29T06:19:06.935Z,20.80
2017-07-29T06:21:41.446Z,20.50
2017-07-29T06:24:15.076Z,20.40
2017-07-29T06:26:48.824Z,20.60
2017-07-29T06:29:22.469Z,20.80
2017-07-29T06:31:57.013Z,20.90
2017-07-29T06:34:30.585Z,20.80
2017-07-29T06:37:04.194Z,20.90
2017-07-29T06:39:37.951Z,21.00
2017-07-29T06:42:12.494Z,21.10
2017-07-29T06:44:46.091Z,21.10
2017-07-29T06:47:20.608Z,21.60
2017-07-29T06:49:54.174Z,21.50
2017-07-29T06:52:27.836Z,21.70
2017-07-29T06:55:02.338Z,21.70
2017-07-29T06:57:35.952Z,21.70
2017-07-29T07:00:09.552Z,21.70
2017-07-29T07:02:43.222Z,21.60
2017-07-29T07:05:16.847Z,21.60
2017-07-29T07:07:51.344Z,21.80
2017-07-29T07:10:26.013Z,21.80
2017-07-29T07:13:00.426Z,21.80
2017-07-29T07:15:34.043Z,21.80
2017-07-29T07:18:07.642Z,21.70
2017-07-29T07:20:42.024Z,21.50
2017-07-29T07:23:15.634Z,21.40
2017-07-29T07:25:49.285Z,21.50
2017-07-29T07:28:23.763Z,21.90
2017-07-29T07:30:57.450Z,21.90
2017-07-29T07:33:31.043Z,22.00
2017-07-29T07:36:04.807Z,21.80
2017-07-29T07:38:39.266Z,21.50
2017-07-29T07:41:12.933Z,21.50
2017-07-29T07:43:46.591Z,21.50
2017-07-29T07:46:20.936Z,21.40
2017-07-29T07:48:54.457Z,21.40
2017-07-29T07:51:28.177Z,21.30
2017-07-29T07:54:01.838Z,21.20
2017-07-29T07:56:35.441Z,21.10
2017-07-29T07:59:09.283Z,21.00
2017-07-29T08:01:43.027Z,21.20
2017-07-29T08:04:16.889Z,21.30
2017-07-29T08:06:50.705Z,21.40
2017-07-29T08:09:24.350Z,21.40
2017-07-29T08:11:58.061Z,21.60
2017-07-29T08:14:31.783Z,21.70
2017-07-29T08:17:05.487Z,21.80
2017-07-29T08:19:39.087Z,21.90
2017-07-29T08:22:12.750Z,21.90
2017-07-29T08:24:47.198Z,21.70
2017-07-29T08:27:20.809Z,21.70
2017-07-29T08:29:54.606Z,21.90
2017-07-29T08:32:28.198Z,22.20
2017-07-29T08:35:01.809Z,22.20
2017-07-29T08:37:36.413Z,22.30
2017-07-29T08:40:10.859Z,22.60
2017-07-29T08:42:44.413Z,22.50
2017-07-29T08:45:18.166Z,22.90
2017-07-29T08:47:51.772Z,23.00
2017-07-29T08:50:25.511Z,23.10
2017-07-29T08:52:59.098Z,23.20
2017-07-29T08:55:32.834Z,23.20
2017-07-29T08:58:06.426Z,23.20
2017-07-29T09:00:40.911Z,22.60
2017-07-29T09:03:15.398Z,22.50
2017-07-29T09:05:49.052Z,22.70
2017-07-29T09:08:22.648Z,22.80
2017-07-29T09:10:56.247Z,22.80
2017-07-29T09:13:29.851Z,23.10
2017-07-29T09:16:03.423Z,23.50
2017-07-29T09:18:37.949Z,23.80
2017-07-29T09:21:11.576Z,23.70
2017-07-29T09:23:45.170Z,24.00
2017-07-29T09:26:18.902Z,24.20
2017-07-29T09:28:52.555Z,24.40
2017-07-29T09:31:26.195Z,25.40
2017-07-29T09:33:59.770Z,25.80
2017-07-29T09:36:33.350Z,25.20
2017-07-29T09:39:06.984Z,24.90
2017-07-29T09:41:41.338Z,25.30
2017-07-29T09:44:15.071Z,25.30
2017-07-29T09:46:48.746Z,26.10
2017-07-29T09:49:22.388Z,26.80
2017-07-29T09:51:56.863Z,27.40
2017-07-29T09:54:31.402Z,28.30
2017-07-29T09:57:06.048Z,28.60
2017-07-29T09:59:40.538Z,28.10
2017-07-29T10:02:14.143Z,28.10
2017-07-29T10:04:47.828Z,27.60
2017-07-29T10:07:21.458Z,27.00
2017-07-29T10:09:55.040Z,26.90
2017-07-29T10:12:28.639Z,26.60
2017-07-29T10:15:02.231Z,26.30
2017-07-29T10:17:35.851Z,25.70
2017-07-29T10:20:09.706Z,25.20
2017-07-29T10:22:43.439Z,24.60
2017-07-29T10:25:17.084Z,24.50
2017-07-29T10:27:50.717Z,24.50
2017-07-29T10:30:24.359Z,24.30
2017-07-29T10:32:58.662Z,23.80
2017-07-29T10:35:32.381Z,23.70
2017-07-29T10:38:05.971Z,23.60
2017-07-29T10:40:40.590Z,23.70
2017-07-29T10:43:15.119Z,23.60
2017-07-29T10:45:48.946Z,23.50
2017-07-29T10:48:22.662Z,23.50
2017-07-29T10:50:56.511Z,23.30
2017-07-29T10:53:31.081Z,23.30
2017-07-29T10:56:04.635Z,23.30
2017-07-29T10:58:38.250Z,23.40
2017-07-29T11:01:11.830Z,23.50
2017-07-29T11:03:45.602Z,23.90
2017-07-29T11:06:19.159Z,24.40
2017-07-29T11:08:52.986Z,24.90
2017-07-29T11:11:26.671Z,25.10
2017-07-29T11:14:00.319Z,25.20
2017-07-29T11:16:34.006Z,25.50
2017-07-29T11:19:08.582Z,25.10
2017-07-29T11:21:42.272Z,25.00
2017-07-29T11:24:15.898Z,24.90
2017-07-29T11:26:49.475Z,24.60
2017-07-29T11:29:23.094Z,24.40
2017-07-29T11:31:56.747Z,24.10
2017-07-29T11:34:31.198Z,23.90
2017-07-29T11:37:05.743Z,24.10
2017-07-29T11:39:39.478Z,24.00
2017-07-29T11:42:13.159Z,24.20
2017-07-29T11:44:47.558Z,26.90
2017-07-29T11:47:21.323Z,26.90
2017-07-29T11:49:55.918Z,28.40
2017-07-29T11:52:29.558Z,28.40
2017-07-29T11:55:03.207Z,28.40
2017-07-29T11:57:36.861Z,28.50
2017-07-29T12:00:10.514Z,28.30
2017-07-29T12:02:45.012Z,27.00
2017-07-29T12:05:18.735Z,27.00
2017-07-29T12:07:52.318Z,26.50
2017-07-29T12:10:25.942Z,26.10
2017-07-29T12:13:00.246Z,25.30
2017-07-29T12:15:34.794Z,25.10
2017-07-29T12:18:09.295Z,24.90
2017-07-29T12:20:43.048Z,24.90
2017-07-29T12:23:16.696Z,24.90
2017-07-29T12:25:50.277Z,25.00
2017-07-29T12:28:24.619Z,25.60
2017-07-29T12:30:58.374Z,25.60
2017-07-29T12:33:32.021Z,25.60
2017-07-29T12:36:05.620Z,25.50
2017-07-29T12:38:39.280Z,25.60
2017-07-29T12:41:13.050Z,25.70
2017-07-29T12:43:46.666Z,25.80
2017-07-29T12:46:21.003Z,25.50
2017-07-29T12:48:54.586Z,25.50
2017-07-29T12:51:28.475Z,25.60
2017-07-29T12:54:02.079Z,25.60
2017-07-29T12:56:36.690Z,26.10
2017-07-29T12:59:10.318Z,26.00
2017-07-29T13:01:43.943Z,26.20
2017-07-29T13:04:17.518Z,26.60
2017-07-29T13:06:51.091Z,26.90
2017-07-29T13:09:24.663Z,27.10
2017-07-29T13:11:58.294Z,27.20
2017-07-29T13:14:32.635Z,26.70
2017-07-29T13:17:06.385Z,26.60
2017-07-29T13:19:40.042Z,26.60
2017-07-29T13:22:13.635Z,26.60
2017-07-29T13:24:47.259Z,26.50
2017-07-29T13:27:21.148Z,26.60
2017-07-29T13:29:55.483Z,26.50
2017-07-29T13:32:29.206Z,26.40
2017-07-29T13:35:03.599Z,26.30
2017-07-29T13:37:38.112Z,26.20
2017-07-29T13:40:11.687Z,26.20
2017-07-29T13:42:45.319Z,26.10
2017-07-29T13:45:18.881Z,25.90
2017-07-29T13:47:53.479Z,26.10
2017-07-29T13:50:27.833Z,26.20
2017-07-29T13:53:01.494Z,26.20
2017-07-29T13:55:35.052Z,26.40
2017-07-29T13:58:08.691Z,26.50
2017-07-29T14:00:42.448Z,26.30
2017-07-29T14:03:16.122Z,26.00
2017-07-29T14:05:50.442Z,25.70
2017-07-29T14:08:24.739Z,25.50
2017-07-29T14:10:58.391Z,25.40
2017-07-29T14:13:32.058Z,25.40
2017-07-29T14:16:06.591Z,25.30
2017-07-29T14:18:40.335Z,25.30
2017-07-29T14:21:13.967Z,25.30
2017-07-29T14:23:47.567Z,25.30
2017-07-29T14:26:21.306Z,25.30
2017-07-29T14:28:54.970Z,25.50
2017-07-29T14:31:29.397Z,25.50
2017-07-29T14:34:03.003Z,25.50
2017-07-29T14:36:36.602Z,25.60
2017-07-29T14:39:10.219Z,25.60
2017-07-29T14:41:43.995Z,25.60
2017-07-29T14:44:17.687Z,25.50
2017-07-29T14:46:52.044Z,25.30
2017-07-29T14:49:25.844Z,25.20
2017-07-29T14:51:59.450Z,25.30
2017-07-29T14:54:33.049Z,25.20
2017-07-29T14:57:06.647Z,25.30
2017-07-29T14:59:40.506Z,25.40
2017-07-29T15:02:14.191Z,25.50
2017-07-29T15:04:47.850Z,25.60
2017-07-29T15:07:21.487Z,25.70
2017-07-29T15:09:55.342Z,25.90
2017-07-29T15:12:28.966Z,26.30
2017-07-29T15:15:02.572Z,26.60
2017-07-29T15:17:36.231Z,26.70
2017-07-29T15:20:09.887Z,26.60
2017-07-29T15:22:44.288Z,26.60
2017-07-29T15:25:17.918Z,26.60
2017-07-29T15:27:51.576Z,26.50
2017-07-29T15:30:25.167Z,26.40
2017-07-29T15:32:58.777Z,26.40
2017-07-29T15:35:32.408Z,26.40
2017-07-29T15:38:06.051Z,26.40
2017-07-29T15:40:39.775Z,26.10
2017-07-29T15:43:14.303Z,26.00
2017-07-29T15:45:47.831Z,25.90
2017-07-29T15:48:21.434Z,26.10
2017-07-29T15:50:55.037Z,26.10
2017-07-29T15:53:28.590Z,26.30
2017-07-29T15:56:02.160Z,26.20
2017-07-29T15:58:35.754Z,26.30
2017-07-29T16:01:10.174Z,26.40
2017-07-29T16:03:44.709Z,26.40
2017-07-29T16:06:18.386Z,26.40
2017-07-29T16:08:51.883Z,26.10
2017-07-29T16:11:25.499Z,26.10
2017-07-29T16:13:59.104Z,26.10
2017-07-29T16:16:32.698Z,26.10
2017-07-29T16:19:07.311Z,25.80
2017-07-29T16:21:41.898Z,25.80
2017-07-29T16:24:15.594Z,25.80
2017-07-29T16:26:49.379Z,25.80
2017-07-29T16:29:23.082Z,25.70
2017-07-29T16:31:56.616Z,25.60
2017-07-29T16:34:30.259Z,25.70
2017-07-29T16:37:03.832Z,25.80
2017-07-29T16:39:37.440Z,26.00
2017-07-29T16:42:11.034Z,26.00
2017-07-29T16:44:44.618Z,26.10
2017-07-29T16:47:19.062Z,26.30
2017-07-29T16:49:52.662Z,26.20
2017-07-29T16:52:26.265Z,26.40
2017-07-29T16:55:00.791Z,26.40
2017-07-29T16:57:34.516Z,26.40
2017-07-29T17:00:08.168Z,26.60
2017-07-29T17:02:41.923Z,26.40
2017-07-29T17:05:15.483Z,26.40
2017-07-29T17:07:49.071Z,26.40
2017-07-29T17:10:22.868Z,26.50
2017-07-29T17:12:56.415Z,26.50
2017-07-29T17:15:30.032Z,26.40
2017-07-29T17:18:03.577Z,26.20
2017-07-29T17:20:37.226Z,26.10
2017-07-29T17:23:10.775Z,26.30
2017-07-29T17:25:44.384Z,26.40
2017-07-29T17:28:18.003Z,26.50
2017-07-29T17:30:51.635Z,26.40
2017-07-29T17:33:25.313Z,26.30
2017-07-29T17:35:58.907Z,26.30
2017-07-29T17:38:32.508Z,26.30
2017-07-29T17:41:06.043Z,26.30
2017-07-29T17:43:39.714Z,26.20
2017-07-29T17:46:13.516Z,26.10
2017-07-29T17:48:47.292Z,26.10
2017-07-29T17:51:22.306Z,25.90
2017-07-29T17:53:56.795Z,25.80
2017-07-29T17:56:31.135Z,25.70
2017-07-29T17:59:05.546Z,25.70
2017-07-29T18:01:39.254Z,25.70
2017-07-29T18:04:13.001Z,25.70
2017-07-29T18:06:46.626Z,25.60
2017-07-29T18:09:20.307Z,25.60
2017-07-29T18:11:53.873Z,25.80
2017-07-29T18:14:28.306Z,25.90
2017-07-29T18:17:02.786Z,25.90
2017-07-29T18:19:36.403Z,25.90
2017-07-29T18:22:10.014Z,25.90
2017-07-29T18:24:43.635Z,26.00
2017-07-29T18:27:18.243Z,26.00
2017-07-29T18:29:52.655Z,26.00
2017-07-29T18:32:20.758Z,25.90
2017-07-29T18:34:48.824Z,26.00
2017-07-29T18:37:16.893Z,26.00
2017-07-29T18:39:44.959Z,26.10
2017-07-29T18:42:13.026Z,26.00
2017-07-29T18:44:41.095Z,26.00
2017-07-29T18:47:09.162Z,26.10
2017-07-29T18:49:37.214Z,26.10
2017-07-29T18:52:06.074Z,25.90
2017-07-29T18:54:34.134Z,25.90
2017-07-29T18:57:02.923Z,25.80
2017-07-29T18:59:30.992Z,25.70
2017-07-29T19:01:59.041Z,25.70
2017-07-29T19:04:27.119Z,25.70
2017-07-29T19:06:55.210Z,25.60
2017-07-29T19:09:23.295Z,25.60
2017-07-29T19:11:51.355Z,25.60
2017-07-29T19:14:19.427Z,25.50
2017-07-29T19:16:47.506Z,25.40
2017-07-29T19:19:15.795Z,25.40
2017-07-29T19:21:43.847Z,25.30
2017-07-29T19:24:11.914Z,25.20
2017-07-29T19:26:40.037Z,25.10
2017-07-29T19:29:08.085Z,25.00
2017-07-29T19:31:36.902Z,24.90
2017-07-29T19:34:04.974Z,24.90
2017-07-29T19:36:33.035Z,24.80
2017-07-29T19:39:01.103Z,24.80
2017-07-29T19:41:29.162Z,24.80
2017-07-29T19:43:58.007Z,24.70
2017-07-29T19:46:26.072Z,24.60
2017-07-29T19:48:54.146Z,24.60
2017-07-29T19:51:22.236Z,24.60
2017-07-29T19:53:50.353Z,24.60
2017-07-29T19:56:18.421Z,24.50
2017-07-29T19:58:47.271Z,24.30
2017-07-29T20:01:15.391Z,24.30
2017-07-29T20:03:44.188Z,24.30
2017-07-29T20:06:12.226Z,24.30
2017-07-29T20:08:41.431Z,24.30
2017-07-29T20:11:10.255Z,24.20
2017-07-29T20:13:38.317Z,24.20
2017-07-29T20:16:06.386Z,24.20
2017-07-29T20:18:34.448Z,24.20
2017-07-29T20:21:02.522Z,24.20
2017-07-29T20:23:30.594Z,24.20
2017-07-29T20:25:58.663Z,24.20
2017-07-29T20:28:26.736Z,24.20
2017-07-29T20:30:54.803Z,24.10
2017-07-29T20:33:22.891Z,24.10
2017-07-29T20:35:50.947Z,24.10
2017-07-29T20:38:19.026Z,24.10
2017-07-29T20:40:47.102Z,24.10
2017-07-29T20:43:15.162Z,24.10
2017-07-29T20:45:43.234Z,24.10
2017-07-29T20:48:11.320Z,24.10
2017-07-29T20:50:39.385Z,24.00
2017-07-29T20:53:07.475Z,23.90
2017-07-29T20:55:35.516Z,23.80
2017-07-29T20:58:03.607Z,23.70
2017-07-29T21:00:31.700Z,23.60
2017-07-29T21:02:59.761Z,23.50
2017-07-29T21:05:27.946Z,23.50
2017-07-29T21:07:56.013Z,23.40
2017-07-29T21:10:24.093Z,23.40
2017-07-29T21:12:52.163Z,23.40
2017-07-29T21:15:20.250Z,23.40
2017-07-29T21:17:48.314Z,23.40
2017-07-29T21:20:16.422Z,23.40
2017-07-29T21:22:45.318Z,23.40
2017-07-29T21:25:14.142Z,23.30
2017-07-29T21:27:42.218Z,23.30
2017-07-29T21:30:10.287Z,23.40
2017-07-29T21:32:38.499Z,23.40
2017-07-29T21:35:07.519Z,23.60
2017-07-29T21:37:35.582Z,23.50
2017-07-29T21:40:04.428Z,23.70
2017-07-29T21:42:32.482Z,23.70
2017-07-29T21:45:00.550Z,23.70
2017-07-29T21:47:28.646Z,23.70
2017-07-29T21:49:56.743Z,23.70
2017-07-29T21:52:24.806Z,23.80
2017-07-29T21:54:52.886Z,23.80
2017-07-29T21:57:20.971Z,23.70
2017-07-29T21:59:49.018Z,23.70
2017-07-29T22:02:17.082Z,23.70
2017-07-29T22:04:45.157Z,23.70
2017-07-29T22:07:13.230Z,23.80
2017-07-29T22:09:41.306Z,23.80
2017-07-29T22:12:09.390Z,23.80
2017-07-29T22:14:38.267Z,23.90
2017-07-29T22:17:06.336Z,23.90
2017-07-29T22:19:34.413Z,24.00
2017-07-29T22:22:02.478Z,24.00
2017-07-29T22:24:30.547Z,24.10
2017-07-29T22:26:58.624Z,24.10
2017-07-29T22:29:26.683Z,24.10
2017-07-29T22:31:54.761Z,24.20
2017-07-29T22:34:22.822Z,24.20
2017-07-29T22:36:50.900Z,24.30
2017-07-29T22:39:18.964Z,24.30
2017-07-29T22:41:47.059Z,24.30
2017-07-29T22:44:16.052Z,24.30
2017-07-29T22:46:44.110Z,24.30
2017-07-29T22:49:12.170Z,24.30
2017-07-29T22:51:40.223Z,24.20
2017-07-29T22:54:08.306Z,24.10
2017-07-29T22:56:36.402Z,24.10
2017-07-29T22:59:04.470Z,24.20
2017-07-29T23:01:32.526Z,24.30
2017-07-29T23:04:00.598Z,24.30
2017-07-29T23:06:28.650Z,24.30
2017-07-29T23:08:56.714Z,24.20
2017-07-29T23:11:24.768Z,24.10
2017-07-29T23:13:53.590Z,24.10
2017-07-29T23:16:22.078Z,24.10
2017-07-29T23:18:50.145Z,24.10
2017-07-29T23:21:18.201Z,24.10
2017-07-29T23:23:46.291Z,24.10
2017-07-29T23:26:14.367Z,24.00
2017-07-29T23:28:42.415Z,24.00
2017-07-29T23:31:10.462Z,24.10
2017-07-29T23:33:39.299Z,24.00
2017-07-29T23:36:07.356Z,24.00
2017-07-29T23:38:35.423Z,24.10
2017-07-29T23:41:03.461Z,24.00
2017-07-29T23:43:32.286Z,23.90
2017-07-29T23:46:00.359Z,23.90
2017-07-29T23:48:28.444Z,23.80
2017-07-29T23:50:56.495Z,23.90
2017-07-29T23:53:24.561Z,24.00
2017-07-29T23:55:52.638Z,24.00
2017-07-29T23:58:20.686Z,24.10
